createdAt,value
2022-11-27T00:00:21.246Z,977.08
2022-11-27T00:01:11.253Z,977.06
2022-11-27T00:02:01.234Z,977.04
2022-11-27T00:02:51.337Z,977.02
2022-11-27T00:03:41.322Z,976.99
2022-11-27T00:04:31.193Z,976.93
2022-11-27T00:05:21.201Z,976.99
2022-11-27T00:06:11.181Z,977.00
2022-11-27T00:07:01.393Z,976.95
2022-11-27T00:07:51.215Z,977.03
2022-11-27T00:08:41.165Z,977.04
2022-11-27T00:09:31.143Z,977.02
2022-11-27T00:10:21.132Z,977.00
2022-11-27T00:11:11.120Z,977.00
2022-11-27T00:12:01.123Z,976.90
2022-11-27T00:12:51.114Z,976.93
2022-11-27T00:13:41.101Z,976.90
2022-11-27T00:14:31.072Z,976.86
2022-11-27T00:15:21.070Z,976.86
2022-11-27T00:16:11.145Z,976.81
2022-11-27T00:17:01.077Z,976.78
2022-11-27T00:17:51.044Z,976.80
2022-11-27T00:18:41.101Z,976.77
2022-11-27T00:19:31.041Z,976.73
2022-11-27T00:20:21.051Z,976.69
2022-11-27T00:21:11.008Z,976.72
2022-11-27T00:22:00.995Z,976.72
2022-11-27T00:22:51.001Z,976.64
2022-11-27T00:23:40.988Z,976.65
2022-11-27T00:24:31.179Z,976.64
2022-11-27T00:25:20.957Z,976.63
2022-11-27T00:26:10.986Z,976.62
2022-11-27T00:27:00.942Z,976.61
2022-11-27T00:27:50.941Z,976.58
2022-11-27T00:28:40.933Z,976.59
2022-11-27T00:29:30.931Z,976.60
2022-11-27T00:30:20.932Z,976.54
2022-11-27T00:31:10.978Z,976.54
2022-11-27T00:32:00.919Z,976.59
2022-11-27T00:32:50.870Z,976.54
2022-11-27T00:33:40.869Z,976.55
2022-11-27T00:34:30.857Z,976.55
2022-11-27T00:35:20.864Z,976.53
2022-11-27T00:36:11.068Z,976.50
2022-11-27T00:37:00.822Z,976.46
2022-11-27T00:37:50.839Z,976.47
2022-11-27T00:38:40.806Z,976.43
2022-11-27T00:39:30.798Z,976.52
2022-11-27T00:40:20.807Z,976.50
2022-11-27T00:41:10.777Z,976.49
2022-11-27T00:42:00.797Z,976.50
2022-11-27T00:42:50.821Z,976.47
2022-11-27T00:43:44.537Z,976.46
2022-11-27T00:44:30.758Z,976.46
2022-11-27T00:45:20.728Z,976.44
2022-11-27T00:46:10.829Z,976.45
2022-11-27T00:47:00.821Z,976.45
2022-11-27T00:47:50.742Z,976.43
2022-11-27T00:48:40.687Z,976.38
2022-11-27T00:49:30.705Z,976.39
2022-11-27T00:50:20.685Z,976.41
2022-11-27T00:51:10.911Z,976.40
2022-11-27T00:52:00.676Z,976.39
2022-11-27T00:52:50.648Z,976.37
2022-11-27T00:53:40.657Z,976.37
2022-11-27T00:54:30.645Z,976.38
2022-11-27T00:55:20.624Z,976.37
2022-11-27T00:56:10.622Z,976.37
2022-11-27T00:57:00.634Z,976.33
2022-11-27T00:57:50.606Z,976.29
2022-11-27T00:58:40.595Z,976.37
2022-11-27T00:59:30.578Z,976.39
2022-11-27T01:00:20.594Z,976.31
2022-11-27T01:01:10.575Z,976.34
2022-11-27T01:02:00.856Z,976.31
2022-11-27T01:02:50.633Z,976.31
2022-11-27T01:03:40.534Z,976.32
2022-11-27T01:04:30.524Z,976.25
2022-11-27T01:05:20.525Z,976.26
2022-11-27T01:06:10.522Z,976.26
2022-11-27T01:07:00.494Z,976.21
2022-11-27T01:07:50.612Z,976.22
2022-11-27T01:08:40.491Z,976.22
2022-11-27T01:09:30.484Z,976.22
2022-11-27T01:10:20.473Z,976.19
2022-11-27T01:11:10.471Z,976.17
2022-11-27T01:12:00.441Z,976.19
2022-11-27T01:12:50.431Z,976.19
2022-11-27T01:13:40.459Z,976.22
2022-11-27T01:14:30.413Z,976.19
2022-11-27T01:15:20.409Z,976.21
2022-11-27T01:16:10.524Z,976.26
2022-11-27T01:17:00.417Z,976.24
2022-11-27T01:17:50.522Z,976.22
2022-11-27T01:18:40.388Z,976.22
2022-11-27T01:19:30.610Z,976.22
2022-11-27T01:20:20.338Z,976.21
2022-11-27T01:21:10.345Z,976.19
2022-11-27T01:22:00.321Z,976.15
2022-11-27T01:22:50.347Z,976.18
2022-11-27T01:23:40.308Z,976.16
2022-11-27T01:24:30.298Z,976.14
2022-11-27T01:25:24.199Z,976.10
2022-11-27T01:26:11.288Z,976.07
2022-11-27T01:27:00.287Z,976.00
2022-11-27T01:27:50.286Z,976.02
2022-11-27T01:28:40.277Z,976.03
2022-11-27T01:29:30.247Z,976.00
2022-11-27T01:30:20.238Z,976.05
2022-11-27T01:31:10.317Z,976.02
2022-11-27T01:32:00.236Z,976.05
2022-11-27T01:32:50.228Z,976.02
2022-11-27T01:33:40.204Z,976.02
2022-11-27T01:34:30.207Z,976.02
2022-11-27T01:35:20.203Z,976.00
2022-11-27T01:36:10.175Z,975.98
2022-11-27T01:37:00.173Z,975.99
2022-11-27T01:37:50.186Z,975.98
2022-11-27T01:38:40.144Z,975.98
2022-11-27T01:39:30.153Z,975.99
2022-11-27T01:40:20.126Z,976.00
2022-11-27T01:41:10.137Z,975.95
2022-11-27T01:42:00.103Z,975.99
2022-11-27T01:42:50.123Z,975.95
2022-11-27T01:43:40.108Z,975.92
2022-11-27T01:44:30.080Z,975.94
2022-11-27T01:45:20.081Z,975.94
2022-11-27T01:46:10.151Z,975.93
2022-11-27T01:47:00.198Z,975.84
2022-11-27T01:47:50.044Z,975.86
2022-11-27T01:48:40.082Z,975.85
2022-11-27T01:49:30.044Z,975.80
2022-11-27T01:50:20.036Z,975.83
2022-11-27T01:51:10.015Z,975.78
2022-11-27T01:52:00.025Z,975.80
2022-11-27T01:52:50.002Z,975.78
2022-11-27T01:53:40.001Z,975.78
2022-11-27T01:54:30.203Z,975.72
2022-11-27T01:55:19.961Z,975.74
2022-11-27T01:56:09.952Z,975.74
2022-11-27T01:56:59.951Z,975.75
2022-11-27T01:57:49.961Z,975.71
2022-11-27T01:58:39.922Z,975.72
2022-11-27T01:59:29.931Z,975.73
2022-11-27T02:00:19.957Z,975.71
2022-11-27T02:01:09.928Z,975.73
2022-11-27T02:01:59.965Z,975.73
2022-11-27T02:02:50.014Z,975.69
2022-11-27T02:03:39.860Z,975.67
2022-11-27T02:04:29.869Z,975.68
2022-11-27T02:05:19.866Z,975.61
2022-11-27T02:06:09.946Z,975.63
2022-11-27T02:06:59.839Z,975.59
2022-11-27T02:07:49.915Z,975.59
2022-11-27T02:08:39.808Z,975.58
2022-11-27T02:09:29.808Z,975.59
2022-11-27T02:10:19.810Z,975.54
2022-11-27T02:11:09.829Z,975.56
2022-11-27T02:11:59.780Z,975.55
2022-11-27T02:12:49.784Z,975.50
2022-11-27T02:13:39.777Z,975.56
2022-11-27T02:14:29.774Z,975.51
2022-11-27T02:15:19.737Z,975.49
2022-11-27T02:16:13.732Z,975.52
2022-11-27T02:17:00.755Z,975.50
2022-11-27T02:17:49.710Z,975.47
2022-11-27T02:18:39.710Z,975.45
2022-11-27T02:19:29.709Z,975.48
2022-11-27T02:20:19.684Z,975.46
2022-11-27T02:21:09.688Z,975.50
2022-11-27T02:21:59.670Z,975.47
2022-11-27T02:22:49.688Z,975.47
2022-11-27T02:23:39.649Z,975.46
2022-11-27T02:24:29.637Z,975.48
2022-11-27T02:25:23.945Z,975.47
2022-11-27T02:26:10.627Z,975.46
2022-11-27T02:26:59.626Z,975.47
2022-11-27T02:27:49.850Z,975.47
2022-11-27T02:28:39.609Z,975.46
2022-11-27T02:29:29.603Z,975.49
2022-11-27T02:30:19.578Z,975.46
2022-11-27T02:31:09.621Z,975.45
2022-11-27T02:31:59.556Z,975.46
2022-11-27T02:32:49.555Z,975.43
2022-11-27T02:33:39.577Z,975.48
2022-11-27T02:34:29.529Z,975.44
2022-11-27T02:35:19.545Z,975.48
2022-11-27T02:36:09.508Z,975.50
2022-11-27T02:36:59.497Z,975.51
2022-11-27T02:37:49.504Z,975.53
2022-11-27T02:38:39.479Z,975.50
2022-11-27T02:39:29.505Z,975.50
2022-11-27T02:40:19.466Z,975.49
2022-11-27T02:41:09.475Z,975.50
2022-11-27T02:41:59.444Z,975.52
2022-11-27T02:42:49.445Z,975.54
2022-11-27T02:43:39.444Z,975.51
2022-11-27T02:44:29.433Z,975.51
2022-11-27T02:45:19.450Z,975.50
2022-11-27T02:46:09.438Z,975.53
2022-11-27T02:46:59.423Z,975.58
2022-11-27T02:47:49.379Z,975.54
2022-11-27T02:48:39.381Z,975.58
2022-11-27T02:49:29.385Z,975.56
2022-11-27T02:50:19.343Z,975.61
2022-11-27T02:51:09.349Z,975.57
2022-11-27T02:51:59.346Z,975.59
2022-11-27T02:52:49.382Z,975.57
2022-11-27T02:53:39.338Z,975.55
2022-11-27T02:54:29.310Z,975.48
2022-11-27T02:55:19.320Z,975.51
2022-11-27T02:56:09.318Z,975.51
2022-11-27T02:56:59.295Z,975.54
2022-11-27T02:57:49.284Z,975.48
2022-11-27T02:58:39.262Z,975.51
2022-11-27T02:59:29.268Z,975.49
2022-11-27T03:00:19.259Z,975.49
2022-11-27T03:01:09.249Z,975.48
2022-11-27T03:01:59.304Z,975.49
2022-11-27T03:02:49.239Z,975.45
2022-11-27T03:03:39.208Z,975.46
2022-11-27T03:04:29.193Z,975.43
2022-11-27T03:05:19.198Z,975.42
2022-11-27T03:06:09.168Z,975.40
2022-11-27T03:06:59.170Z,975.36
2022-11-27T03:07:49.317Z,975.32
2022-11-27T03:08:39.168Z,975.34
2022-11-27T03:09:29.159Z,975.32
2022-11-27T03:10:19.142Z,975.34
2022-11-27T03:11:09.116Z,975.30
2022-11-27T03:11:59.128Z,975.28
2022-11-27T03:12:49.108Z,975.27
2022-11-27T03:13:39.116Z,975.23
2022-11-27T03:14:29.088Z,975.26
2022-11-27T03:15:19.085Z,975.19
2022-11-27T03:16:09.134Z,975.16
2022-11-27T03:16:59.088Z,975.19
2022-11-27T03:17:49.075Z,975.16
2022-11-27T03:18:39.041Z,975.14
2022-11-27T03:19:29.069Z,975.19
2022-11-27T03:20:19.026Z,975.18
2022-11-27T03:21:09.013Z,975.22
2022-11-27T03:21:59.035Z,975.19
2022-11-27T03:22:49.004Z,975.23
2022-11-27T03:23:38.997Z,975.20
2022-11-27T03:24:28.988Z,975.24
2022-11-27T03:25:19.225Z,975.24
2022-11-27T03:26:08.948Z,975.21
2022-11-27T03:26:58.959Z,975.26
2022-11-27T03:27:48.947Z,975.25
2022-11-27T03:28:38.935Z,975.25
2022-11-27T03:29:28.937Z,975.21
2022-11-27T03:30:18.905Z,975.19
2022-11-27T03:31:09.020Z,975.19
2022-11-27T03:31:58.915Z,975.13
2022-11-27T03:32:48.898Z,975.11
2022-11-27T03:33:38.889Z,975.14
2022-11-27T03:34:28.854Z,975.10
2022-11-27T03:35:18.864Z,975.12
2022-11-27T03:36:08.846Z,975.07
2022-11-27T03:36:58.865Z,975.06
2022-11-27T03:37:48.813Z,975.09
2022-11-27T03:38:38.821Z,975.05
2022-11-27T03:39:28.804Z,975.05
2022-11-27T03:40:18.821Z,975.04
2022-11-27T03:41:08.801Z,975.02
2022-11-27T03:41:58.804Z,975.02
2022-11-27T03:42:48.809Z,975.03
2022-11-27T03:43:38.790Z,975.02
2022-11-27T03:44:28.753Z,975.09
2022-11-27T03:45:18.743Z,975.06
2022-11-27T03:46:08.807Z,975.02
2022-11-27T03:46:58.760Z,974.99
2022-11-27T03:47:48.782Z,975.03
2022-11-27T03:48:38.738Z,975.05
2022-11-27T03:49:28.700Z,975.06
2022-11-27T03:50:18.701Z,975.06
2022-11-27T03:51:08.672Z,975.02
2022-11-27T03:51:58.671Z,974.99
2022-11-27T03:52:48.897Z,975.01
2022-11-27T03:53:38.671Z,974.99
2022-11-27T03:54:28.647Z,974.97
2022-11-27T03:55:18.650Z,974.95
2022-11-27T03:56:10.415Z,974.96
2022-11-27T03:56:58.614Z,974.96
2022-11-27T03:57:48.615Z,974.96
2022-11-27T03:58:38.649Z,974.98
2022-11-27T03:59:28.589Z,974.98
2022-11-27T04:00:18.573Z,974.95
2022-11-27T04:01:08.584Z,974.92
2022-11-27T04:01:58.600Z,974.89
2022-11-27T04:02:48.549Z,974.89
2022-11-27T04:03:38.614Z,974.95
2022-11-27T04:04:28.574Z,974.93
2022-11-27T04:05:18.522Z,974.93
2022-11-27T04:06:08.518Z,974.91
2022-11-27T04:06:58.528Z,974.88
2022-11-27T04:07:48.544Z,974.89
2022-11-27T04:08:38.729Z,974.86
2022-11-27T04:09:28.488Z,974.86
2022-11-27T04:10:18.461Z,974.82
2022-11-27T04:11:08.476Z,974.81
2022-11-27T04:11:58.458Z,974.83
2022-11-27T04:12:48.448Z,974.78
2022-11-27T04:13:38.453Z,974.75
2022-11-27T04:14:28.458Z,974.76
2022-11-27T04:15:18.427Z,974.78
2022-11-27T04:16:08.455Z,974.77
2022-11-27T04:16:58.407Z,974.77
2022-11-27T04:17:48.385Z,974.78
2022-11-27T04:18:38.386Z,974.78
2022-11-27T04:19:28.367Z,974.81
2022-11-27T04:20:18.394Z,974.78
2022-11-27T04:21:08.353Z,974.78
2022-11-27T04:21:58.343Z,974.77
2022-11-27T04:22:48.333Z,974.74
2022-11-27T04:23:38.334Z,974.70
2022-11-27T04:24:28.336Z,974.69
2022-11-27T04:25:18.318Z,974.71
2022-11-27T04:26:08.520Z,974.68
2022-11-27T04:26:58.306Z,974.71
2022-11-27T04:27:48.496Z,974.73
2022-11-27T04:28:38.263Z,974.73
2022-11-27T04:29:28.245Z,974.75
2022-11-27T04:30:18.254Z,974.77
2022-11-27T04:31:08.292Z,974.76
2022-11-27T04:31:58.232Z,974.77
2022-11-27T04:32:48.233Z,974.78
2022-11-27T04:33:38.272Z,974.78
2022-11-27T04:34:28.216Z,974.80
2022-11-27T04:35:18.200Z,974.78
2022-11-27T04:36:08.184Z,974.76
2022-11-27T04:36:58.172Z,974.75
2022-11-27T04:37:48.150Z,974.80
2022-11-27T04:38:38.172Z,974.81
2022-11-27T04:39:28.193Z,974.80
2022-11-27T04:40:18.151Z,974.77
2022-11-27T04:41:08.122Z,974.76
2022-11-27T04:41:58.110Z,974.76
2022-11-27T04:42:48.131Z,974.75
2022-11-27T04:43:38.111Z,974.76
2022-11-27T04:44:28.089Z,974.79
2022-11-27T04:45:18.090Z,974.75
2022-11-27T04:46:08.100Z,974.82
2022-11-27T04:46:58.138Z,974.82
2022-11-27T04:47:48.041Z,974.81
2022-11-27T04:48:38.084Z,974.83
2022-11-27T04:49:28.037Z,974.80
2022-11-27T04:50:18.048Z,974.81
2022-11-27T04:51:08.018Z,974.77
2022-11-27T04:51:58.010Z,974.80
2022-11-27T04:52:47.997Z,974.78
2022-11-27T04:53:37.979Z,974.75
2022-11-27T04:54:28.016Z,974.75
2022-11-27T04:55:17.987Z,974.77
2022-11-27T04:56:07.969Z,974.72
2022-11-27T04:56:57.948Z,974.73
2022-11-27T04:57:47.957Z,974.75
2022-11-27T04:58:37.936Z,974.73
2022-11-27T04:59:27.936Z,974.68
2022-11-27T05:00:17.947Z,974.74
2022-11-27T05:01:08.039Z,974.76
2022-11-27T05:01:57.905Z,974.70
2022-11-27T05:02:47.909Z,974.78
2022-11-27T05:03:37.896Z,974.78
2022-11-27T05:04:27.892Z,974.75
2022-11-27T05:05:17.856Z,974.75
2022-11-27T05:06:07.907Z,974.76
2022-11-27T05:06:57.854Z,974.72
2022-11-27T05:07:47.886Z,974.74
2022-11-27T05:08:37.823Z,974.72
2022-11-27T05:09:27.811Z,974.68
2022-11-27T05:10:17.813Z,974.68
2022-11-27T05:11:07.804Z,974.67
2022-11-27T05:11:58.023Z,974.65
2022-11-27T05:12:47.774Z,974.62
2022-11-27T05:13:37.794Z,974.62
2022-11-27T05:14:27.764Z,974.60
2022-11-27T05:15:17.761Z,974.57
2022-11-27T05:16:07.816Z,974.55
2022-11-27T05:16:57.782Z,974.54
2022-11-27T05:17:47.713Z,974.58
2022-11-27T05:18:37.723Z,974.58
2022-11-27T05:19:27.712Z,974.57
2022-11-27T05:20:17.699Z,974.56
2022-11-27T05:21:07.673Z,974.63
2022-11-27T05:21:57.704Z,974.58
2022-11-27T05:22:47.732Z,974.56
2022-11-27T05:23:37.690Z,974.53
2022-11-27T05:24:27.660Z,974.61
2022-11-27T05:25:17.647Z,974.56
2022-11-27T05:26:07.628Z,974.57
2022-11-27T05:26:57.631Z,974.54
2022-11-27T05:27:47.621Z,974.56
2022-11-27T05:28:37.621Z,974.56
2022-11-27T05:29:27.609Z,974.55
2022-11-27T05:30:17.588Z,974.54
2022-11-27T05:31:07.622Z,974.51
2022-11-27T05:31:57.637Z,974.49
2022-11-27T05:32:47.569Z,974.48
2022-11-27T05:33:37.547Z,974.47
2022-11-27T05:34:27.530Z,974.49
2022-11-27T05:35:17.540Z,974.47
2022-11-27T05:36:07.514Z,974.43
2022-11-27T05:36:57.530Z,974.43
2022-11-27T05:37:47.492Z,974.42
2022-11-27T05:38:37.507Z,974.45
2022-11-27T05:39:27.479Z,974.45
2022-11-27T05:40:17.474Z,974.47
2022-11-27T05:41:07.471Z,974.46
2022-11-27T05:41:57.453Z,974.43
2022-11-27T05:42:47.453Z,974.38
2022-11-27T05:43:37.666Z,974.41
2022-11-27T05:44:27.436Z,974.37
2022-11-27T05:45:17.436Z,974.43
2022-11-27T05:46:07.406Z,974.48
2022-11-27T05:46:57.523Z,974.43
2022-11-27T05:47:47.406Z,974.38
2022-11-27T05:48:37.382Z,974.44
2022-11-27T05:49:27.384Z,974.38
2022-11-27T05:50:17.375Z,974.41
2022-11-27T05:51:07.367Z,974.41
2022-11-27T05:51:57.606Z,974.47
2022-11-27T05:52:47.336Z,974.44
2022-11-27T05:53:37.334Z,974.50
2022-11-27T05:54:27.327Z,974.45
2022-11-27T05:55:17.323Z,974.47
2022-11-27T05:56:07.332Z,974.46
2022-11-27T05:56:57.285Z,974.44
2022-11-27T05:57:47.505Z,974.45
2022-11-27T05:58:37.284Z,974.48
2022-11-27T05:59:27.281Z,974.47
2022-11-27T06:00:17.261Z,974.48
2022-11-27T06:01:07.239Z,974.45
2022-11-27T06:01:57.315Z,974.49
2022-11-27T06:02:47.389Z,974.51
2022-11-27T06:03:37.337Z,974.48
2022-11-27T06:04:27.200Z,974.48
2022-11-27T06:05:17.210Z,974.51
2022-11-27T06:06:07.195Z,974.47
2022-11-27T06:06:57.189Z,974.49
2022-11-27T06:07:47.238Z,974.46
2022-11-27T06:08:37.155Z,974.49
2022-11-27T06:09:27.201Z,974.43
2022-11-27T06:10:17.155Z,974.50
2022-11-27T06:11:07.140Z,974.46
2022-11-27T06:11:57.124Z,974.45
2022-11-27T06:12:47.100Z,974.43
2022-11-27T06:13:37.121Z,974.45
2022-11-27T06:14:27.128Z,974.36
2022-11-27T06:15:17.109Z,974.43
2022-11-27T06:16:07.147Z,974.44
2022-11-27T06:16:57.131Z,974.38
2022-11-27T06:17:47.049Z,974.39
2022-11-27T06:18:37.062Z,974.41
2022-11-27T06:19:27.038Z,974.40
2022-11-27T06:20:17.046Z,974.37
2022-11-27T06:21:07.038Z,974.40
2022-11-27T06:21:57.026Z,974.37
2022-11-27T06:22:47.000Z,974.38
2022-11-27T06:23:36.987Z,974.41
2022-11-27T06:24:27.013Z,974.41
2022-11-27T06:25:16.985Z,974.39
2022-11-27T06:26:06.962Z,974.39
2022-11-27T06:26:57.016Z,974.36
2022-11-27T06:27:46.966Z,974.35
2022-11-27T06:28:36.931Z,974.32
2022-11-27T06:29:26.958Z,974.28
2022-11-27T06:30:16.922Z,974.24
2022-11-27T06:31:06.967Z,974.26
2022-11-27T06:31:56.948Z,974.24
2022-11-27T06:32:47.106Z,974.16
2022-11-27T06:33:36.894Z,974.17
2022-11-27T06:34:26.865Z,974.13
2022-11-27T06:35:16.874Z,974.15
2022-11-27T06:36:06.862Z,974.13
2022-11-27T06:36:56.833Z,974.14
2022-11-27T06:37:46.831Z,974.20
2022-11-27T06:38:36.859Z,974.11
2022-11-27T06:39:26.835Z,974.18
2022-11-27T06:40:16.860Z,974.16
2022-11-27T06:41:06.794Z,974.19
2022-11-27T06:41:56.791Z,974.21
2022-11-27T06:42:46.776Z,974.19
2022-11-27T06:43:36.773Z,974.21
2022-11-27T06:44:26.796Z,974.17
2022-11-27T06:45:16.742Z,974.15
2022-11-27T06:46:07.024Z,974.09
2022-11-27T06:46:56.725Z,974.12
2022-11-27T06:47:46.729Z,974.11
2022-11-27T06:48:36.711Z,974.07
2022-11-27T06:49:26.720Z,974.08
2022-11-27T06:50:16.729Z,974.04
2022-11-27T06:51:06.689Z,974.08
2022-11-27T06:51:56.703Z,974.05
2022-11-27T06:52:46.660Z,974.09
2022-11-27T06:53:36.661Z,974.06
2022-11-27T06:54:26.663Z,974.05
2022-11-27T06:55:16.629Z,974.00
2022-11-27T06:56:06.858Z,974.03
2022-11-27T06:56:56.633Z,974.01
2022-11-27T06:57:46.629Z,973.96
2022-11-27T06:58:36.612Z,973.96
2022-11-27T06:59:26.600Z,973.91
2022-11-27T07:00:16.593Z,973.89
2022-11-27T07:01:06.711Z,973.85
2022-11-27T07:01:56.611Z,973.86
2022-11-27T07:02:46.547Z,973.81
2022-11-27T07:03:36.570Z,973.80
2022-11-27T07:04:26.541Z,973.83
2022-11-27T07:05:16.520Z,973.81
2022-11-27T07:06:06.528Z,973.80
2022-11-27T07:06:56.508Z,973.82
2022-11-27T07:07:46.568Z,973.82
2022-11-27T07:08:36.508Z,973.87
2022-11-27T07:09:26.496Z,973.84
2022-11-27T07:10:16.476Z,973.91
2022-11-27T07:11:06.463Z,973.91
2022-11-27T07:11:56.457Z,973.88
2022-11-27T07:12:46.462Z,973.92
2022-11-27T07:13:36.465Z,973.91
2022-11-27T07:14:26.445Z,973.93
2022-11-27T07:15:16.430Z,973.95
2022-11-27T07:16:06.455Z,973.96
2022-11-27T07:16:56.475Z,973.91
2022-11-27T07:17:46.393Z,973.92
2022-11-27T07:18:36.389Z,973.88
2022-11-27T07:19:26.386Z,973.84
2022-11-27T07:20:16.378Z,973.82
2022-11-27T07:21:06.346Z,973.81
2022-11-27T07:21:56.346Z,973.81
2022-11-27T07:22:46.348Z,973.79
2022-11-27T07:23:36.578Z,973.80
2022-11-27T07:24:26.313Z,973.80
2022-11-27T07:25:16.315Z,973.79
2022-11-27T07:26:06.313Z,973.79
2022-11-27T07:26:56.277Z,973.82
2022-11-27T07:27:46.294Z,973.83
2022-11-27T07:28:36.252Z,973.87
2022-11-27T07:29:26.331Z,973.86
2022-11-27T07:30:16.253Z,973.88
2022-11-27T07:31:06.328Z,973.88
2022-11-27T07:31:56.294Z,973.85
2022-11-27T07:32:46.229Z,973.82
2022-11-27T07:33:36.231Z,973.81
2022-11-27T07:34:26.224Z,973.79
2022-11-27T07:35:16.402Z,973.78
2022-11-27T07:36:06.185Z,973.70
2022-11-27T07:36:56.173Z,973.73
2022-11-27T07:37:46.159Z,973.64
2022-11-27T07:38:36.163Z,973.60
2022-11-27T07:39:54.023Z,973.57
2022-11-27T07:40:17.180Z,973.61
2022-11-27T07:41:06.140Z,973.57
2022-11-27T07:41:59.826Z,973.54
2022-11-27T07:42:46.118Z,973.55
2022-11-27T07:43:36.114Z,973.54
2022-11-27T07:44:26.130Z,973.61
2022-11-27T07:45:16.108Z,973.62
2022-11-27T07:46:06.164Z,973.64
2022-11-27T07:46:56.061Z,973.66
2022-11-27T07:47:46.057Z,973.72
2022-11-27T07:48:36.057Z,973.73
2022-11-27T07:49:26.054Z,973.72
2022-11-27T07:50:16.059Z,973.69
2022-11-27T07:51:06.037Z,973.68
2022-11-27T07:51:56.046Z,973.67
2022-11-27T07:52:46.007Z,973.65
2022-11-27T07:53:35.977Z,973.60
2022-11-27T07:54:25.980Z,973.57
2022-11-27T07:55:15.977Z,973.51
2022-11-27T07:56:05.982Z,973.56
2022-11-27T07:56:56.004Z,973.59
2022-11-27T07:57:45.964Z,973.61
2022-11-27T07:58:35.936Z,973.63
2022-11-27T07:59:25.927Z,973.68
2022-11-27T08:00:15.945Z,973.65
2022-11-27T08:01:05.998Z,973.70
2022-11-27T08:01:55.997Z,973.73
2022-11-27T08:02:45.895Z,973.75
2022-11-27T08:03:35.927Z,973.78
2022-11-27T08:04:25.916Z,973.81
2022-11-27T08:05:15.927Z,973.84
2022-11-27T08:06:05.865Z,973.79
2022-11-27T08:06:56.091Z,973.81
2022-11-27T08:07:45.994Z,973.84
2022-11-27T08:08:35.835Z,973.77
2022-11-27T08:09:26.052Z,973.82
2022-11-27T08:10:15.809Z,973.77
2022-11-27T08:11:05.827Z,973.80
2022-11-27T08:11:55.795Z,973.78
2022-11-27T08:12:46.003Z,973.74
2022-11-27T08:13:35.763Z,973.76
2022-11-27T08:14:25.784Z,973.73
2022-11-27T08:15:15.759Z,973.71
2022-11-27T08:16:05.786Z,973.70
2022-11-27T08:16:55.862Z,973.73
2022-11-27T08:17:45.770Z,973.73
2022-11-27T08:18:35.750Z,973.69
2022-11-27T08:19:25.711Z,973.68
2022-11-27T08:20:15.710Z,973.65
2022-11-27T08:21:05.710Z,973.67
2022-11-27T08:21:55.684Z,973.59
2022-11-27T08:22:45.714Z,973.55
2022-11-27T08:23:35.690Z,973.64
2022-11-27T08:24:25.679Z,973.65
2022-11-27T08:25:15.650Z,973.59
2022-11-27T08:26:05.653Z,973.70
2022-11-27T08:26:55.621Z,973.71
2022-11-27T08:27:45.629Z,973.67
2022-11-27T08:28:35.609Z,973.64
2022-11-27T08:29:29.901Z,973.66
2022-11-27T08:30:16.688Z,973.66
2022-11-27T08:31:05.580Z,973.65
2022-11-27T08:31:55.657Z,973.63
2022-11-27T08:32:45.575Z,973.61
2022-11-27T08:33:35.558Z,973.58
2022-11-27T08:34:25.543Z,973.54
2022-11-27T08:35:15.525Z,973.46
2022-11-27T08:36:08.115Z,973.50
2022-11-27T08:36:55.518Z,973.47
2022-11-27T08:37:45.496Z,973.49
2022-11-27T08:38:35.508Z,973.46
2022-11-27T08:39:25.498Z,973.47
2022-11-27T08:40:15.470Z,973.44
2022-11-27T08:41:05.507Z,973.41
2022-11-27T08:41:55.468Z,973.39
2022-11-27T08:42:45.451Z,973.40
2022-11-27T08:43:35.436Z,973.33
2022-11-27T08:44:25.436Z,973.30
2022-11-27T08:45:15.440Z,973.28
2022-11-27T08:46:05.466Z,973.26
2022-11-27T08:46:55.645Z,973.27
2022-11-27T08:47:45.418Z,973.27
2022-11-27T08:48:35.387Z,973.21
2022-11-27T08:49:25.383Z,973.23
2022-11-27T08:50:15.375Z,973.17
2022-11-27T08:51:05.356Z,973.18
2022-11-27T08:51:55.355Z,973.17
2022-11-27T08:52:45.373Z,973.13
2022-11-27T08:53:35.351Z,973.19
2022-11-27T08:54:25.336Z,973.09
2022-11-27T08:55:15.314Z,973.14
2022-11-27T08:56:05.364Z,973.11
2022-11-27T08:56:55.284Z,973.12
2022-11-27T08:57:45.280Z,973.12
2022-11-27T08:58:35.278Z,973.15
2022-11-27T08:59:25.271Z,973.13
2022-11-27T09:00:15.272Z,973.15
2022-11-27T09:01:05.302Z,973.13
2022-11-27T09:01:55.281Z,973.10
2022-11-27T09:02:45.233Z,973.12
2022-11-27T09:03:35.300Z,973.14
2022-11-27T09:04:25.269Z,973.09
2022-11-27T09:05:15.196Z,973.07
2022-11-27T09:06:05.192Z,973.05
2022-11-27T09:06:58.340Z,973.08
2022-11-27T09:07:45.233Z,973.06
2022-11-27T09:08:35.160Z,973.07
2022-11-27T09:09:25.171Z,973.08
2022-11-27T09:10:15.140Z,973.05
2022-11-27T09:11:05.160Z,973.07
2022-11-27T09:11:55.137Z,973.05
2022-11-27T09:12:45.131Z,972.99
2022-11-27T09:13:35.133Z,973.01
2022-11-27T09:14:25.118Z,972.99
2022-11-27T09:15:15.100Z,973.01
2022-11-27T09:16:05.143Z,973.03
2022-11-27T09:16:55.194Z,973.04
2022-11-27T09:17:45.085Z,972.97
2022-11-27T09:18:35.061Z,973.02
2022-11-27T09:19:25.078Z,972.96
2022-11-27T09:20:15.041Z,973.03
2022-11-27T09:21:05.029Z,972.99
2022-11-27T09:21:55.033Z,972.98
2022-11-27T09:22:45.007Z,973.01
2022-11-27T09:23:34.997Z,972.98
2022-11-27T09:24:25.010Z,972.95
2022-11-27T09:25:15.211Z,972.96
2022-11-27T09:26:05.008Z,972.94
2022-11-27T09:26:54.969Z,972.93
2022-11-27T09:27:44.956Z,972.93
2022-11-27T09:28:34.933Z,972.95
2022-11-27T09:29:24.937Z,972.94
2022-11-27T09:30:14.913Z,972.90
2022-11-27T09:31:04.915Z,972.92
2022-11-27T09:31:54.990Z,972.88
2022-11-27T09:32:44.894Z,972.88
2022-11-27T09:33:34.893Z,972.90
2022-11-27T09:34:24.896Z,972.91
2022-11-27T09:35:14.929Z,972.87
2022-11-27T09:36:04.874Z,972.87
2022-11-27T09:36:54.892Z,972.91
2022-11-27T09:37:44.838Z,972.85
2022-11-27T09:38:34.834Z,972.80
2022-11-27T09:39:24.821Z,972.79
2022-11-27T09:40:14.803Z,972.71
2022-11-27T09:41:04.813Z,972.80
2022-11-27T09:41:54.807Z,972.78
2022-11-27T09:42:44.833Z,972.78
2022-11-27T09:43:34.781Z,972.75
2022-11-27T09:44:24.774Z,972.81
2022-11-27T09:45:14.750Z,972.80
2022-11-27T09:46:04.828Z,972.82
2022-11-27T09:46:54.732Z,972.80
2022-11-27T09:47:44.744Z,972.83
2022-11-27T09:48:34.742Z,972.78
2022-11-27T09:49:24.720Z,972.75
2022-11-27T09:50:14.712Z,972.75
2022-11-27T09:51:04.747Z,972.71
2022-11-27T09:51:54.681Z,972.68
2022-11-27T09:52:44.690Z,972.66
2022-11-27T09:53:34.672Z,972.69
2022-11-27T09:54:25.052Z,972.68
2022-11-27T09:55:14.642Z,972.66
2022-11-27T09:56:04.633Z,972.72
2022-11-27T09:56:54.633Z,972.66
2022-11-27T09:57:44.621Z,972.63
2022-11-27T09:58:34.606Z,972.63
2022-11-27T09:59:24.607Z,972.62
2022-11-27T10:00:14.630Z,972.57
2022-11-27T10:01:04.572Z,972.54
2022-11-27T10:01:54.715Z,972.49
2022-11-27T10:02:44.694Z,972.52
2022-11-27T10:03:34.658Z,972.53
2022-11-27T10:04:24.559Z,972.49
2022-11-27T10:05:15.012Z,972.48
2022-11-27T10:06:04.569Z,972.51
2022-11-27T10:06:54.526Z,972.46
2022-11-27T10:07:44.565Z,972.48
2022-11-27T10:08:34.505Z,972.46
2022-11-27T10:09:24.478Z,972.46
2022-11-27T10:10:14.472Z,972.47
2022-11-27T10:11:04.459Z,972.51
2022-11-27T10:11:54.529Z,972.48
2022-11-27T10:12:44.451Z,972.50
2022-11-27T10:13:34.449Z,972.46
2022-11-27T10:14:24.437Z,972.45
2022-11-27T10:15:14.421Z,972.41
2022-11-27T10:16:04.452Z,972.41
2022-11-27T10:16:54.486Z,972.39
2022-11-27T10:17:44.435Z,972.39
2022-11-27T10:18:34.379Z,972.35
2022-11-27T10:19:24.380Z,972.43
2022-11-27T10:20:14.387Z,972.38
2022-11-27T10:21:04.349Z,972.33
2022-11-27T10:21:54.357Z,972.37
2022-11-27T10:22:44.357Z,972.38
2022-11-27T10:23:34.346Z,972.35